sensor_id;sensor_type;location;lat;lon;timestamp;temperature;humidity
39777;DHT22;25453;48.162;14.510;2022-12-18T00:01:56;-2.20;65.40
39777;DHT22;25453;48.162;14.510;2022-12-18T00:04:30;-2.20;65.60
39777;DHT22;25453;48.162;14.510;2022-12-18T00:07:03;-2.20;65.40
39777;DHT22;25453;48.162;14.510;2022-12-18T00:09:30;-2.20;65.40
39777;DHT22;25453;48.162;14.510;2022-12-18T00:12:06;-2.20;65.50
39777;DHT22;25453;48.162;14.510;2022-12-18T00:14:44;-2.20;65.50
39777;DHT22;25453;48.162;14.510;2022-12-18T00:17:17;-2.20;65.10
39777;DHT22;25453;48.162;14.510;2022-12-18T00:19:50;-2.10;65.50
39777;DHT22;25453;48.162;14.510;2022-12-18T00:22:17;-2.00;65.50
39777;DHT22;25453;48.162;14.510;2022-12-18T00:24:50;-2.00;65.60
39777;DHT22;25453;48.162;14.510;2022-12-18T00:27:17;-1.90;65.50
39777;DHT22;25453;48.162;14.510;2022-12-18T00:29:50;-1.90;65.50
39777;DHT22;25453;48.162;14.510;2022-12-18T00:32:17;-1.90;65.50
39777;DHT22;25453;48.162;14.510;2022-12-18T00:34:50;-1.90;65.40
39777;DHT22;25453;48.162;14.510;2022-12-18T00:37:17;-1.90;65.40
39777;DHT22;25453;48.162;14.510;2022-12-18T00:39:50;-1.90;65.50
39777;DHT22;25453;48.162;14.510;2022-12-18T00:42:17;-1.90;65.50
39777;DHT22;25453;48.162;14.510;2022-12-18T00:45:09;-1.90;65.60
39777;DHT22;25453;48.162;14.510;2022-12-18T00:47:39;-1.80;65.70
39777;DHT22;25453;48.162;14.510;2022-12-18T00:50:12;-1.80;66.00
39777;DHT22;25453;48.162;14.510;2022-12-18T00:52:39;-1.70;66.30
39777;DHT22;25453;48.162;14.510;2022-12-18T00:55:13;-1.70;66.40
39777;DHT22;25453;48.162;14.510;2022-12-18T00:57:40;-1.60;66.70
39777;DHT22;25453;48.162;14.510;2022-12-18T01:00:21;-1.50;66.80
39777;DHT22;25453;48.162;14.510;2022-12-18T01:02:54;-1.40;66.70
39777;DHT22;25453;48.162;14.510;2022-12-18T01:05:21;-1.30;66.70
39777;DHT22;25453;48.162;14.510;2022-12-18T01:07:55;-1.30;66.50
39777;DHT22;25453;48.162;14.510;2022-12-18T01:10:22;-1.30;66.40
39777;DHT22;25453;48.162;14.510;2022-12-18T01:12:55;-1.30;66.40
39777;DHT22;25453;48.162;14.510;2022-12-18T01:15:29;-1.30;66.70
39777;DHT22;25453;48.162;14.510;2022-12-18T01:18:02;-1.30;67.00
39777;DHT22;25453;48.162;14.510;2022-12-18T01:20:30;-1.20;67.00
39777;DHT22;25453;48.162;14.510;2022-12-18T01:23:03;-1.20;67.00
39777;DHT22;25453;48.162;14.510;2022-12-18T01:25:36;-1.20;67.10
39777;DHT22;25453;48.162;14.510;2022-12-18T01:28:03;-1.20;67.10
39777;DHT22;25453;48.162;14.510;2022-12-18T01:30:36;-1.30;67.20
39777;DHT22;25453;48.162;14.510;2022-12-18T01:33:04;-1.30;67.50
39777;DHT22;25453;48.162;14.510;2022-12-18T01:35:31;-1.20;67.90
39777;DHT22;25453;48.162;14.510;2022-12-18T01:38:04;-1.20;67.90
39777;DHT22;25453;48.162;14.510;2022-12-18T01:40:31;-1.20;68.10
39777;DHT22;25453;48.162;14.510;2022-12-18T01:43:04;-1.10;68.30
39777;DHT22;25453;48.162;14.510;2022-12-18T01:45:31;-1.10;68.20
39777;DHT22;25453;48.162;14.510;2022-12-18T01:48:05;-1.10;68.00
39777;DHT22;25453;48.162;14.510;2022-12-18T01:50:34;-1.10;68.00
39777;DHT22;25453;48.162;14.510;2022-12-18T01:53:16;-1.20;67.90
39777;DHT22;25453;48.162;14.510;2022-12-18T01:55:57;-1.20;67.80
39777;DHT22;25453;48.162;14.510;2022-12-18T01:58:48;-1.30;68.30
39777;DHT22;25453;48.162;14.510;2022-12-18T02:01:19;-1.30;68.40
39777;DHT22;25453;48.162;14.510;2022-12-18T02:03:54;-1.30;68.50
39777;DHT22;25453;48.162;14.510;2022-12-18T02:06:29;-1.30;68.80
39777;DHT22;25453;48.162;14.510;2022-12-18T02:11:46;-1.30;69.30
39777;DHT22;25453;48.162;14.510;2022-12-18T02:14:23;-1.20;69.30
39777;DHT22;25453;48.162;14.510;2022-12-18T02:27:23;-1.10;69.70
39777;DHT22;25453;48.162;14.510;2022-12-18T02:29:57;-1.10;69.70
39777;DHT22;25453;48.162;14.510;2022-12-18T02:32:25;-1.20;69.50
39777;DHT22;25453;48.162;14.510;2022-12-18T02:35:00;-1.20;69.60
39777;DHT22;25453;48.162;14.510;2022-12-18T02:37:28;-1.20;69.90
39777;DHT22;25453;48.162;14.510;2022-12-18T02:40:04;-1.20;69.90
39777;DHT22;25453;48.162;14.510;2022-12-18T02:42:31;-1.20;70.20
39777;DHT22;25453;48.162;14.510;2022-12-18T02:45:06;-1.20;70.70
39777;DHT22;25453;48.162;14.510;2022-12-18T02:47:34;-1.10;70.90
39777;DHT22;25453;48.162;14.510;2022-12-18T02:50:14;-1.10;70.90
39777;DHT22;25453;48.162;14.510;2022-12-18T02:58:45;-1.00;70.80
39777;DHT22;25453;48.162;14.510;2022-12-18T03:03:51;-1.00;70.80
39777;DHT22;25453;48.162;14.510;2022-12-18T03:06:30;-1.00;71.00
39777;DHT22;25453;48.162;14.510;2022-12-18T03:08:59;-1.00;70.90
39777;DHT22;25453;48.162;14.510;2022-12-18T03:11:34;-1.00;70.90
39777;DHT22;25453;48.162;14.510;2022-12-18T03:14:29;-1.00;70.80
39777;DHT22;25453;48.162;14.510;2022-12-18T03:17:00;-1.00;70.90
39777;DHT22;25453;48.162;14.510;2022-12-18T03:19:35;-1.00;71.40
39777;DHT22;25453;48.162;14.510;2022-12-18T03:22:02;-1.00;71.20
39777;DHT22;25453;48.162;14.510;2022-12-18T03:24:37;-1.00;71.60
39777;DHT22;25453;48.162;14.510;2022-12-18T03:27:13;-0.90;71.60
39777;DHT22;25453;48.162;14.510;2022-12-18T03:29:49;-0.90;71.60
39777;DHT22;25453;48.162;14.510;2022-12-18T03:32:27;-0.90;71.80
39777;DHT22;25453;48.162;14.510;2022-12-18T03:34:57;-0.80;71.70
39777;DHT22;25453;48.162;14.510;2022-12-18T03:37:32;-0.80;71.60
39777;DHT22;25453;48.162;14.510;2022-12-18T03:39:58;-0.80;71.50
39777;DHT22;25453;48.162;14.510;2022-12-18T03:45:20;-0.80;71.30
39777;DHT22;25453;48.162;14.510;2022-12-18T03:50:57;-0.70;71.50
39777;DHT22;25453;48.162;14.510;2022-12-18T03:56:07;-0.70;71.40
39777;DHT22;25453;48.162;14.510;2022-12-18T03:58:48;-0.70;71.40
39777;DHT22;25453;48.162;14.510;2022-12-18T04:01:17;-0.70;71.60
39777;DHT22;25453;48.162;14.510;2022-12-18T04:03:51;-0.70;71.50
39777;DHT22;25453;48.162;14.510;2022-12-18T04:06:19;-0.70;71.50
39777;DHT22;25453;48.162;14.510;2022-12-18T04:08:53;-0.70;71.50
39777;DHT22;25453;48.162;14.510;2022-12-18T04:11:20;-0.70;71.50
39777;DHT22;25453;48.162;14.510;2022-12-18T04:13:57;-0.70;71.40
39777;DHT22;25453;48.162;14.510;2022-12-18T04:16:27;-0.70;71.40
39777;DHT22;25453;48.162;14.510;2022-12-18T04:19:02;-0.70;71.50
39777;DHT22;25453;48.162;14.510;2022-12-18T04:21:29;-0.70;71.50
39777;DHT22;25453;48.162;14.510;2022-12-18T04:24:02;-0.70;71.60
39777;DHT22;25453;48.162;14.510;2022-12-18T04:26:36;-0.60;71.70
39777;DHT22;25453;48.162;14.510;2022-12-18T04:29:03;-0.60;71.60
39777;DHT22;25453;48.162;14.510;2022-12-18T04:31:36;-0.60;71.80
39777;DHT22;25453;48.162;14.510;2022-12-18T04:34:04;-0.60;71.70
39777;DHT22;25453;48.162;14.510;2022-12-18T04:36:37;-0.60;71.80
39777;DHT22;25453;48.162;14.510;2022-12-18T04:39:04;-0.50;72.00
39777;DHT22;25453;48.162;14.510;2022-12-18T04:41:37;-0.50;71.80
39777;DHT22;25453;48.162;14.510;2022-12-18T04:44:04;-0.50;71.90
39777;DHT22;25453;48.162;14.510;2022-12-18T04:46:37;-0.50;71.90
39777;DHT22;25453;48.162;14.510;2022-12-18T04:49:04;-0.50;72.00
39777;DHT22;25453;48.162;14.510;2022-12-18T04:51:38;-0.50;72.10
39777;DHT22;25453;48.162;14.510;2022-12-18T04:54:05;-0.50;72.00
39777;DHT22;25453;48.162;14.510;2022-12-18T04:56:45;-0.50;72.00
39777;DHT22;25453;48.162;14.510;2022-12-18T04:59:25;-0.50;71.80
39777;DHT22;25453;48.162;14.510;2022-12-18T05:01:58;-0.50;71.80
39777;DHT22;25453;48.162;14.510;2022-12-18T05:04:25;-0.50;71.80
39777;DHT22;25453;48.162;14.510;2022-12-18T05:06:58;-0.60;72.00
39777;DHT22;25453;48.162;14.510;2022-12-18T05:09:25;-0.60;71.80
39777;DHT22;25453;48.162;14.510;2022-12-18T05:11:58;-0.60;72.10
39777;DHT22;25453;48.162;14.510;2022-12-18T05:14:25;-0.60;72.40
39777;DHT22;25453;48.162;14.510;2022-12-18T05:17:00;-0.60;72.20
39777;DHT22;25453;48.162;14.510;2022-12-18T05:19:27;-0.60;72.00
39777;DHT22;25453;48.162;14.510;2022-12-18T05:22:00;-0.60;71.80
39777;DHT22;25453;48.162;14.510;2022-12-18T05:24:28;-0.70;71.80
39777;DHT22;25453;48.162;14.510;2022-12-18T05:26:54;-0.70;72.00
39777;DHT22;25453;48.162;14.510;2022-12-18T05:29:27;-0.80;72.00
39777;DHT22;25453;48.162;14.510;2022-12-18T05:31:54;-0.80;72.00
39777;DHT22;25453;48.162;14.510;2022-12-18T05:34:28;-0.80;72.00
39777;DHT22;25453;48.162;14.510;2022-12-18T05:36:55;-0.80;71.80
39777;DHT22;25453;48.162;14.510;2022-12-18T05:39:28;-0.80;72.00
39777;DHT22;25453;48.162;14.510;2022-12-18T05:41:55;-0.80;72.10
39777;DHT22;25453;48.162;14.510;2022-12-18T05:44:28;-0.80;72.10
39777;DHT22;25453;48.162;14.510;2022-12-18T05:46:55;-0.90;71.90
39777;DHT22;25453;48.162;14.510;2022-12-18T05:49:29;-0.90;72.10
39777;DHT22;25453;48.162;14.510;2022-12-18T05:51:55;-0.90;72.20
39777;DHT22;25453;48.162;14.510;2022-12-18T05:54:28;-0.80;72.40
39777;DHT22;25453;48.162;14.510;2022-12-18T05:56:55;-0.80;72.30
39777;DHT22;25453;48.162;14.510;2022-12-18T05:59:35;-0.80;72.40
39777;DHT22;25453;48.162;14.510;2022-12-18T06:02:02;-0.70;72.40
39777;DHT22;25453;48.162;14.510;2022-12-18T06:04:36;-0.70;72.30
39777;DHT22;25453;48.162;14.510;2022-12-18T06:07:03;-0.70;72.20
39777;DHT22;25453;48.162;14.510;2022-12-18T06:09:36;-0.70;72.30
39777;DHT22;25453;48.162;14.510;2022-12-18T06:12:09;-0.70;72.10
39777;DHT22;25453;48.162;14.510;2022-12-18T06:14:37;-0.70;72.10
39777;DHT22;25453;48.162;14.510;2022-12-18T06:17:10;-0.70;72.10
39777;DHT22;25453;48.162;14.510;2022-12-18T06:19:37;-0.80;72.00
39777;DHT22;25453;48.162;14.510;2022-12-18T06:22:11;-0.80;71.80
39777;DHT22;25453;48.162;14.510;2022-12-18T06:24:37;-0.80;72.10
39777;DHT22;25453;48.162;14.510;2022-12-18T06:27:11;-0.80;72.20
39777;DHT22;25453;48.162;14.510;2022-12-18T06:29:44;-0.80;72.20
39777;DHT22;25453;48.162;14.510;2022-12-18T06:32:12;-0.80;72.20
39777;DHT22;25453;48.162;14.510;2022-12-18T06:34:45;-0.80;72.20
39777;DHT22;25453;48.162;14.510;2022-12-18T06:37:12;-0.80;72.10
39777;DHT22;25453;48.162;14.510;2022-12-18T06:39:45;-0.80;72.10
39777;DHT22;25453;48.162;14.510;2022-12-18T06:42:12;-0.70;72.40
39777;DHT22;25453;48.162;14.510;2022-12-18T06:44:45;-0.70;72.20
39777;DHT22;25453;48.162;14.510;2022-12-18T06:47:12;-0.70;72.30
39777;DHT22;25453;48.162;14.510;2022-12-18T06:49:45;-0.70;72.40
39777;DHT22;25453;48.162;14.510;2022-12-18T06:52:12;-0.60;72.20
39777;DHT22;25453;48.162;14.510;2022-12-18T06:54:45;-0.60;72.10
39777;DHT22;25453;48.162;14.510;2022-12-18T06:57:18;-0.60;72.00
39777;DHT22;25453;48.162;14.510;2022-12-18T06:59:51;-0.60;72.00
39777;DHT22;25453;48.162;14.510;2022-12-18T07:02:24;-0.60;71.80
39777;DHT22;25453;48.162;14.510;2022-12-18T07:04:51;-0.60;71.60
39777;DHT22;25453;48.162;14.510;2022-12-18T07:07:24;-0.60;71.50
39777;DHT22;25453;48.162;14.510;2022-12-18T07:09:51;-0.70;71.40
39777;DHT22;25453;48.162;14.510;2022-12-18T07:12:26;-0.70;71.50
39777;DHT22;25453;48.162;14.510;2022-12-18T07:14:53;-0.70;71.50
39777;DHT22;25453;48.162;14.510;2022-12-18T07:17:26;-0.70;71.40
39777;DHT22;25453;48.162;14.510;2022-12-18T07:19:53;-0.80;71.30
39777;DHT22;25453;48.162;14.510;2022-12-18T07:22:26;-0.80;71.20
39777;DHT22;25453;48.162;14.510;2022-12-18T07:25:00;-0.90;71.10
39777;DHT22;25453;48.162;14.510;2022-12-18T07:27:27;-0.90;71.40
39777;DHT22;25453;48.162;14.510;2022-12-18T07:30:01;-0.90;71.50
39777;DHT22;25453;48.162;14.510;2022-12-18T07:32:28;-1.00;71.10
39777;DHT22;25453;48.162;14.510;2022-12-18T07:35:03;-1.00;71.10
39777;DHT22;25453;48.162;14.510;2022-12-18T07:37:36;-1.10;71.20
39777;DHT22;25453;48.162;14.510;2022-12-18T07:40:03;-1.00;71.50
39777;DHT22;25453;48.162;14.510;2022-12-18T07:42:37;-1.00;71.40
39777;DHT22;25453;48.162;14.510;2022-12-18T07:45:04;-1.00;71.10
39777;DHT22;25453;48.162;14.510;2022-12-18T07:47:38;-1.00;71.00
39777;DHT22;25453;48.162;14.510;2022-12-18T07:50:08;-1.00;70.90
39777;DHT22;25453;48.162;14.510;2022-12-18T07:52:41;-1.00;70.90
39777;DHT22;25453;48.162;14.510;2022-12-18T07:55:14;-1.00;71.00
39777;DHT22;25453;48.162;14.510;2022-12-18T07:57:41;-1.00;70.90
39777;DHT22;25453;48.162;14.510;2022-12-18T08:00:18;-1.00;70.80
39777;DHT22;25453;48.162;14.510;2022-12-18T08:02:52;-0.90;71.00
39777;DHT22;25453;48.162;14.510;2022-12-18T08:05:26;-0.90;70.90
39777;DHT22;25453;48.162;14.510;2022-12-18T08:07:53;-0.90;70.90
39777;DHT22;25453;48.162;14.510;2022-12-18T08:10:26;-0.80;70.90
39777;DHT22;25453;48.162;14.510;2022-12-18T08:12:53;-0.80;70.70
39777;DHT22;25453;48.162;14.510;2022-12-18T08:15:30;-0.80;70.70
39777;DHT22;25453;48.162;14.510;2022-12-18T08:17:57;-0.80;70.60
39777;DHT22;25453;48.162;14.510;2022-12-18T08:20:36;-0.70;70.70
39777;DHT22;25453;48.162;14.510;2022-12-18T08:23:03;-0.70;70.70
39777;DHT22;25453;48.162;14.510;2022-12-18T08:25:36;-0.60;70.50
39777;DHT22;25453;48.162;14.510;2022-12-18T08:28:03;-0.60;70.30
39777;DHT22;25453;48.162;14.510;2022-12-18T08:30:37;-0.50;70.40
39777;DHT22;25453;48.162;14.510;2022-12-18T08:33:11;-0.40;69.90
39777;DHT22;25453;48.162;14.510;2022-12-18T08:35:44;-0.10;69.60
39777;DHT22;25453;48.162;14.510;2022-12-18T08:38:11;0.40;69.80
39777;DHT22;25453;48.162;14.510;2022-12-18T08:40:45;0.90;70.10
39777;DHT22;25453;48.162;14.510;2022-12-18T08:43:12;1.50;70.20
39777;DHT22;25453;48.162;14.510;2022-12-18T08:46:06;2.10;69.70
39777;DHT22;25453;48.162;14.510;2022-12-18T08:48:33;2.80;69.00
39777;DHT22;25453;48.162;14.510;2022-12-18T08:51:06;3.30;68.00
39777;DHT22;25453;48.162;14.510;2022-12-18T08:53:36;3.70;66.50
39777;DHT22;25453;48.162;14.510;2022-12-18T08:56:10;4.00;65.20
39777;DHT22;25453;48.162;14.510;2022-12-18T08:58:43;4.40;65.40
39777;DHT22;25453;48.162;14.510;2022-12-18T09:01:18;5.00;65.00
39777;DHT22;25453;48.162;14.510;2022-12-18T09:03:45;5.60;63.80
39777;DHT22;25453;48.162;14.510;2022-12-18T09:06:19;6.00;62.80
39777;DHT22;25453;48.162;14.510;2022-12-18T09:08:47;6.50;61.80
39777;DHT22;25453;48.162;14.510;2022-12-18T09:11:23;6.80;60.70
39777;DHT22;25453;48.162;14.510;2022-12-18T09:13:51;7.10;59.40
39777;DHT22;25453;48.162;14.510;2022-12-18T09:16:25;7.40;58.40
39777;DHT22;25453;48.162;14.510;2022-12-18T09:19:01;7.60;57.40
39777;DHT22;25453;48.162;14.510;2022-12-18T09:21:33;7.80;56.30
39777;DHT22;25453;48.162;14.510;2022-12-18T09:24:13;7.90;55.80
39777;DHT22;25453;48.162;14.510;2022-12-18T09:26:40;8.10;54.40
39777;DHT22;25453;48.162;14.510;2022-12-18T09:29:20;8.20;54.20
39777;DHT22;25453;48.162;14.510;2022-12-18T09:31:47;8.30;53.40
39777;DHT22;25453;48.162;14.510;2022-12-18T09:34:22;8.30;52.90
39777;DHT22;25453;48.162;14.510;2022-12-18T09:36:56;8.40;52.10
39777;DHT22;25453;48.162;14.510;2022-12-18T09:39:23;8.40;51.70
39777;DHT22;25453;48.162;14.510;2022-12-18T09:41:57;8.40;51.00
39777;DHT22;25453;48.162;14.510;2022-12-18T09:44:41;8.40;50.60
39777;DHT22;25453;48.162;14.510;2022-12-18T09:47:34;8.30;49.70
39777;DHT22;25453;48.162;14.510;2022-12-18T09:50:41;8.10;49.30
39777;DHT22;25453;48.162;14.510;2022-12-18T09:53:06;8.00;49.50
39777;DHT22;25453;48.162;14.510;2022-12-18T09:55:45;7.90;49.40
39777;DHT22;25453;48.162;14.510;2022-12-18T10:00:54;7.90;48.90
39777;DHT22;25453;48.162;14.510;2022-12-18T10:03:21;7.80;48.80
39777;DHT22;25453;48.162;14.510;2022-12-18T10:08:35;7.60;48.90
39777;DHT22;25453;48.162;14.510;2022-12-18T10:13:42;7.60;48.50
39777;DHT22;25453;48.162;14.510;2022-12-18T10:21:37;7.10;48.10
39777;DHT22;25453;48.162;14.510;2022-12-18T10:27:07;6.80;48.10
39777;DHT22;25453;48.162;14.510;2022-12-18T10:30:00;6.60;47.90
39777;DHT22;25453;48.162;14.510;2022-12-18T10:32:35;6.40;47.90
39777;DHT22;25453;48.162;14.510;2022-12-18T10:35:02;6.20;47.70
39777;DHT22;25453;48.162;14.510;2022-12-18T10:37:37;5.80;47.50
39777;DHT22;25453;48.162;14.510;2022-12-18T10:40:24;5.50;47.70
39777;DHT22;25453;48.162;14.510;2022-12-18T10:43:05;5.10;48.20
39777;DHT22;25453;48.162;14.510;2022-12-18T10:45:35;4.80;48.70
39777;DHT22;25453;48.162;14.510;2022-12-18T10:48:21;4.40;49.70
39777;DHT22;25453;48.162;14.510;2022-12-18T10:50:49;4.20;50.20
39777;DHT22;25453;48.162;14.510;2022-12-18T10:53:40;3.90;51.10
39777;DHT22;25453;48.162;14.510;2022-12-18T10:56:18;3.70;51.80
39777;DHT22;25453;48.162;14.510;2022-12-18T10:59:00;3.50;52.30
39777;DHT22;25453;48.162;14.510;2022-12-18T11:04:27;3.30;53.40
39777;DHT22;25453;48.162;14.510;2022-12-18T11:07:05;3.20;54.30
39777;DHT22;25453;48.162;14.510;2022-12-18T11:09:34;3.10;53.80
39777;DHT22;25453;48.162;14.510;2022-12-18T11:12:18;3.00;54.20
39777;DHT22;25453;48.162;14.510;2022-12-18T11:14:52;3.00;54.30
39777;DHT22;25453;48.162;14.510;2022-12-18T11:20:00;2.80;55.50
39777;DHT22;25453;48.162;14.510;2022-12-18T11:22:28;2.70;56.10
39777;DHT22;25453;48.162;14.510;2022-12-18T11:27:54;2.60;56.80
39777;DHT22;25453;48.162;14.510;2022-12-18T11:30:37;2.60;57.60
39777;DHT22;25453;48.162;14.510;2022-12-18T11:33:20;2.60;57.10
39777;DHT22;25453;48.162;14.510;2022-12-18T11:35:55;2.50;57.50
39777;DHT22;25453;48.162;14.510;2022-12-18T11:38:34;2.50;58.00
39777;DHT22;25453;48.162;14.510;2022-12-18T11:41:19;2.50;58.00
39777;DHT22;25453;48.162;14.510;2022-12-18T11:43:50;2.50;58.60
39777;DHT22;25453;48.162;14.510;2022-12-18T11:49:01;2.50;59.50
39777;DHT22;25453;48.162;14.510;2022-12-18T11:51:41;2.40;59.80
39777;DHT22;25453;48.162;14.510;2022-12-18T11:54:12;2.40;59.50
39777;DHT22;25453;48.162;14.510;2022-12-18T11:56:48;2.40;59.70
39777;DHT22;25453;48.162;14.510;2022-12-18T11:59:32;2.40;60.10
39777;DHT22;25453;48.162;14.510;2022-12-18T12:11:10;2.40;60.20
39777;DHT22;25453;48.162;14.510;2022-12-18T12:16:21;2.30;61.70
39777;DHT22;25453;48.162;14.510;2022-12-18T12:18:56;2.20;61.10
39777;DHT22;25453;48.162;14.510;2022-12-18T12:21:46;2.20;61.50
39777;DHT22;25453;48.162;14.510;2022-12-18T12:24:35;2.20;61.90
39777;DHT22;25453;48.162;14.510;2022-12-18T12:30:11;2.10;62.70
39777;DHT22;25453;48.162;14.510;2022-12-18T12:35:22;1.80;63.00
39777;DHT22;25453;48.162;14.510;2022-12-18T12:38:04;1.70;62.90
39777;DHT22;25453;48.162;14.510;2022-12-18T12:40:33;1.60;64.00
39777;DHT22;25453;48.162;14.510;2022-12-18T12:43:38;1.50;64.00
39777;DHT22;25453;48.162;14.510;2022-12-18T12:46:16;1.50;64.50
39777;DHT22;25453;48.162;14.510;2022-12-18T12:48:55;1.40;64.60
39777;DHT22;25453;48.162;14.510;2022-12-18T12:51:34;1.30;64.80
39777;DHT22;25453;48.162;14.510;2022-12-18T12:54:02;1.30;65.00
39777;DHT22;25453;48.162;14.510;2022-12-18T12:56:58;1.20;65.20
39777;DHT22;25453;48.162;14.510;2022-12-18T13:00:04;1.20;65.90
39777;DHT22;25453;48.162;14.510;2022-12-18T13:02:36;1.20;65.60
39777;DHT22;25453;48.162;14.510;2022-12-18T13:07:47;1.00;65.70
39777;DHT22;25453;48.162;14.510;2022-12-18T13:12:56;1.00;66.00
39777;DHT22;25453;48.162;14.510;2022-12-18T13:20:36;0.80;66.00
39777;DHT22;25453;48.162;14.510;2022-12-18T13:23:32;0.70;66.60
39777;DHT22;25453;48.162;14.510;2022-12-18T13:26:28;0.60;66.30
39777;DHT22;25453;48.162;14.510;2022-12-18T13:28:54;0.60;66.40
39777;DHT22;25453;48.162;14.510;2022-12-18T13:36:56;0.60;67.30
39777;DHT22;25453;48.162;14.510;2022-12-18T13:39:31;0.50;66.80
39777;DHT22;25453;48.162;14.510;2022-12-18T13:44:41;0.40;67.50
39777;DHT22;25453;48.162;14.510;2022-12-18T13:47:25;0.40;68.00
39777;DHT22;25453;48.162;14.510;2022-12-18T13:49:53;0.40;67.50
39777;DHT22;25453;48.162;14.510;2022-12-18T13:52:28;0.40;67.90
39777;DHT22;25453;48.162;14.510;2022-12-18T13:55:01;0.40;68.30
39777;DHT22;25453;48.162;14.510;2022-12-18T13:57:38;0.40;68.10
39777;DHT22;25453;48.162;14.510;2022-12-18T14:00:23;0.40;68.20
39777;DHT22;25453;48.162;14.510;2022-12-18T14:02:57;0.50;68.40
39777;DHT22;25453;48.162;14.510;2022-12-18T14:05:32;0.50;68.40
39777;DHT22;25453;48.162;14.510;2022-12-18T14:08:12;0.50;68.10
39777;DHT22;25453;48.162;14.510;2022-12-18T14:10:40;0.40;68.10
39777;DHT22;25453;48.162;14.510;2022-12-18T14:13:21;0.40;68.50
39777;DHT22;25453;48.162;14.510;2022-12-18T14:15:50;0.30;68.80
39777;DHT22;25453;48.162;14.510;2022-12-18T14:18:38;0.20;68.60
39777;DHT22;25453;48.162;14.510;2022-12-18T14:21:22;0.10;68.60
39777;DHT22;25453;48.162;14.510;2022-12-18T14:24:02;0.10;69.40
39777;DHT22;25453;48.162;14.510;2022-12-18T14:26:35;0.00;69.80
39777;DHT22;25453;48.162;14.510;2022-12-18T14:29:22;-0.10;69.40
39777;DHT22;25453;48.162;14.510;2022-12-18T14:32:15;-0.10;70.30
39777;DHT22;25453;48.162;14.510;2022-12-18T14:34:49;-0.20;70.60
39777;DHT22;25453;48.162;14.510;2022-12-18T14:37:24;-0.20;70.30
39777;DHT22;25453;48.162;14.510;2022-12-18T14:39:55;-0.30;70.50
39777;DHT22;25453;48.162;14.510;2022-12-18T14:42:36;-0.30;71.00
39777;DHT22;25453;48.162;14.510;2022-12-18T14:47:56;-0.30;70.90
39777;DHT22;25453;48.162;14.510;2022-12-18T14:50:30;-0.30;71.20
39777;DHT22;25453;48.162;14.510;2022-12-18T14:52:57;-0.20;71.40
39777;DHT22;25453;48.162;14.510;2022-12-18T14:55:31;-0.20;71.20
39777;DHT22;25453;48.162;14.510;2022-12-18T14:57:58;-0.20;70.60
39777;DHT22;25453;48.162;14.510;2022-12-18T15:00:32;-0.20;71.30
39777;DHT22;25453;48.162;14.510;2022-12-18T15:02:58;-0.20;71.50
39777;DHT22;25453;48.162;14.510;2022-12-18T15:05:32;-0.30;70.80
39777;DHT22;25453;48.162;14.510;2022-12-18T15:08:00;-0.30;71.40
39777;DHT22;25453;48.162;14.510;2022-12-18T15:10:35;-0.30;71.30
39777;DHT22;25453;48.162;14.510;2022-12-18T15:13:20;-0.30;71.60
39777;DHT22;25453;48.162;14.510;2022-12-18T15:15:55;-0.40;71.40
39777;DHT22;25453;48.162;14.510;2022-12-18T15:18:28;-0.40;71.90
39777;DHT22;25453;48.162;14.510;2022-12-18T15:21:10;-0.40;71.60
39777;DHT22;25453;48.162;14.510;2022-12-18T15:26:18;-0.40;72.10
39777;DHT22;25453;48.162;14.510;2022-12-18T15:28:54;-0.40;72.10
39777;DHT22;25453;48.162;14.510;2022-12-18T15:31:31;-0.40;71.80
39777;DHT22;25453;48.162;14.510;2022-12-18T15:36:41;-0.40;73.00
39777;DHT22;25453;48.162;14.510;2022-12-18T15:39:14;-0.40;72.80
39777;DHT22;25453;48.162;14.510;2022-12-18T15:41:49;-0.40;72.30
39777;DHT22;25453;48.162;14.510;2022-12-18T15:44:34;-0.40;72.40
39777;DHT22;25453;48.162;14.510;2022-12-18T15:47:10;-0.40;72.70
39777;DHT22;25453;48.162;14.510;2022-12-18T15:49:44;-0.40;72.70
39777;DHT22;25453;48.162;14.510;2022-12-18T15:52:11;-0.40;72.60
39777;DHT22;25453;48.162;14.510;2022-12-18T15:54:46;-0.40;72.20
39777;DHT22;25453;48.162;14.510;2022-12-18T15:57:31;-0.40;72.30
39777;DHT22;25453;48.162;14.510;2022-12-18T16:00:11;-0.40;72.80
39777;DHT22;25453;48.162;14.510;2022-12-18T16:02:38;-0.40;72.50
39777;DHT22;25453;48.162;14.510;2022-12-18T16:05:15;-0.40;72.80
39777;DHT22;25453;48.162;14.510;2022-12-18T16:07:44;-0.40;72.90
39777;DHT22;25453;48.162;14.510;2022-12-18T16:10:18;-0.30;72.40
39777;DHT22;25453;48.162;14.510;2022-12-18T16:12:44;-0.40;72.00
39777;DHT22;25453;48.162;14.510;2022-12-18T16:15:18;-0.40;72.20
39777;DHT22;25453;48.162;14.510;2022-12-18T16:17:52;-0.50;72.30
39777;DHT22;25453;48.162;14.510;2022-12-18T16:20:21;-0.50;72.80
39777;DHT22;25453;48.162;14.510;2022-12-18T16:22:55;-0.40;72.80
39777;DHT22;25453;48.162;14.510;2022-12-18T16:25:23;-0.40;72.90
39777;DHT22;25453;48.162;14.510;2022-12-18T16:27:58;-0.40;72.50
39777;DHT22;25453;48.162;14.510;2022-12-18T16:30:26;-0.50;72.40
39777;DHT22;25453;48.162;14.510;2022-12-18T16:33:04;-0.50;72.50
39777;DHT22;25453;48.162;14.510;2022-12-18T16:35:33;-0.50;72.70
39777;DHT22;25453;48.162;14.510;2022-12-18T16:38:08;-0.60;72.50
39777;DHT22;25453;48.162;14.510;2022-12-18T16:40:35;-0.50;73.20
39777;DHT22;25453;48.162;14.510;2022-12-18T16:43:31;-0.50;73.40
39777;DHT22;25453;48.162;14.510;2022-12-18T16:45:58;-0.50;73.20
39777;DHT22;25453;48.162;14.510;2022-12-18T16:48:32;-0.40;72.50
39777;DHT22;25453;48.162;14.510;2022-12-18T16:51:02;-0.50;72.70
39777;DHT22;25453;48.162;14.510;2022-12-18T16:53:37;-0.50;73.00
39777;DHT22;25453;48.162;14.510;2022-12-18T16:56:12;-0.40;73.10
39777;DHT22;25453;48.162;14.510;2022-12-18T16:58:50;-0.40;72.90
39777;DHT22;25453;48.162;14.510;2022-12-18T17:01:38;-0.40;73.00
39777;DHT22;25453;48.162;14.510;2022-12-18T17:04:07;-0.40;73.30
39777;DHT22;25453;48.162;14.510;2022-12-18T17:06:41;-0.30;72.60
39777;DHT22;25453;48.162;14.510;2022-12-18T17:09:12;-0.40;72.70
39777;DHT22;25453;48.162;14.510;2022-12-18T17:11:50;-0.40;72.90
39777;DHT22;25453;48.162;14.510;2022-12-18T17:14:18;-0.40;72.90
39777;DHT22;25453;48.162;14.510;2022-12-18T17:16:53;-0.40;72.90
39777;DHT22;25453;48.162;14.510;2022-12-18T17:19:40;-0.30;73.10
39777;DHT22;25453;48.162;14.510;2022-12-18T17:22:14;-0.30;72.40
39777;DHT22;25453;48.162;14.510;2022-12-18T17:24:42;-0.40;72.70
39777;DHT22;25453;48.162;14.510;2022-12-18T17:27:16;-0.40;72.70
39777;DHT22;25453;48.162;14.510;2022-12-18T17:29:43;-0.40;72.20
39777;DHT22;25453;48.162;14.510;2022-12-18T17:32:17;-0.40;72.50
39777;DHT22;25453;48.162;14.510;2022-12-18T17:34:44;-0.40;72.30
39777;DHT22;25453;48.162;14.510;2022-12-18T17:37:18;-0.50;72.80
39777;DHT22;25453;48.162;14.510;2022-12-18T17:39:51;-0.50;72.90
39777;DHT22;25453;48.162;14.510;2022-12-18T17:42:18;-0.50;72.90